Auction Buyer/Seller Tools

Zero Bids search

Find items with zero bids on eBay
This tool allows you to find more on eBay by finding items with zero bids only.
You might be the only bidder at the lowest price!
You can type a keyword in the field below. If you are getting too many unwanted results, then you can type unwanted keywords in "Exclude" field, this way those will be excluded from your results.

Search Keywords should be used as one single keyword or a short phrase (without quotes).
Exclude Keywords must be separated by Space or Comma.
Search Keywords:
Exclude Keywords:  
Digital Delivery items only
Free Shipping items only
Gallery items only
"Get It Fast" items only
Items with "Gift" option only
Items with quantity more than 1
Items with picture only
Current bid to
Condition:
Seller:
Country:
Item #TitleBidsCur.BidTime Left
362656740261 New Hynix 48GB 6x 8GB 2RX4 DDR3-1333 MHz PC3-10600R ECC REG Server Memory Ram 0 USD 93.91 02:33:12
112712816722 Micron Memory Ram 4GB DDR3 PC3-10600E 1333 MHz 240 pin DIMM ECC Unbuffered Lot 0 USD 91.1 04:02:48
143181580108 00D4963 - IBM Compatible 16GB PC3-10600 DDR3-1333Mhz 2Rx4 1.35v ECC RDIMM 0 USD 99.95 05:10:17
143181580112 49Y1569 - IBM Compatible 16GB PC3-10600 DDR3-1333Mhz 2Rx4 1.35v ECC RDIMM 0 USD 99.95 05:10:17
143181580138 647653-381 - HP Compatible 16GB PC3-10600 DDR3-1333Mhz 2Rx4 1.35v ECC RDIMM 0 USD 99.95 05:10:18
143181580262 0A89413 - IBM Compatible 16GB PC3-10600 DDR3-1333Mhz 2Rx4 1.5v ECC RDIMM 0 USD 99.95 05:10:20
143181580300 47J0239 - IBM Compatible 16GB PC3-10600 DDR3-1333Mhz 2Rx4 1.35v ECC RDIMM 0 USD 99.95 05:10:21
143181580303 A5185893 - Dell Compatible 8GB PC3-10600 DDR3-1333Mhz 2Rx8 1.35v ECC UDIMM 0 USD 89.95 05:10:21
143181580346 A5185927 - Dell Compatible 8GB PC3-10600 DDR3-1333Mhz 2Rx8 1.35v ECC UDIMM 0 USD 94.95 05:10:23
143181580350 A5180167 - Dell Compatible 8GB PC3-10600 DDR3-1333Mhz 2Rx8 1.35v ECC UDIMM 0 USD 99.95 05:10:23
143181580363 00D7096 - IBM Compatible 16GB PC3-10600 DDR3-1333Mhz 2Rx4 1.35v ECC RDIMM 0 USD 99.95 05:10:24
143181580385 664696-001 - HP Compatible 8GB PC3-10600 DDR3-1333Mhz 2Rx8 1.35v ECC UDIMM 0 USD 94.95 05:10:25
143181580386 A5185929 - Dell Compatible 8GB PC3-10600 DDR3-1333Mhz 2Rx8 1.35v ECC UDIMM 0 USD 99.95 05:10:25
143181580387 A5180168 - Dell Compatible 8GB PC3-10600 DDR3-1333Mhz 2Rx8 1.35v ECC UDIMM 0 USD 89.95 05:10:25
143181580390 647658-081 - HP Compatible 8GB PC3-10600 DDR3-1333Mhz 2Rx8 1.35v ECC UDIMM 0 USD 94.95 05:10:25
143181580403 78P1915 - IBM Compatible 16GB PC3-10600 DDR3-1333Mhz 2Rx4 1.35v ECC RDIMM 0 USD 89.95 05:10:25
143181580417 0A89417 - IBM Compatible 16GB PC3-10600 DDR3-1333Mhz 2Rx4 1.35v ECC RDIMM 0 USD 99.95 05:10:27
143181580426 A5256356 - Dell Compatible 8GB PC3-10600 DDR3-1333Mhz 2Rx8 1.35v ECC UDIMM 0 USD 89.95 05:10:27
143181580430 00U0896 - IBM Compatible 16GB PC3-10600 DDR3-1333Mhz 2Rx4 1.35v ECC RDIMM 0 USD 92.95 05:10:27
143181580436 46W0727 - IBM Compatible 16GB PC3-10600 DDR3-1333Mhz 2Rx4 1.35v ECC RDIMM 0 USD 99.95 05:10:27
143181580472 SNPYXKF8C/16G - Dell Compatible 16GB PC3-10600 DDR3-1333Mhz 2Rx4 1.35v ECC RDIMM 0 USD 99.95 05:10:29
143181580493 628794-181 - HP Compatible 16GB PC3-10600 DDR3-1333Mhz 2Rx4 1.35v ECC RDIMM 0 USD 99.95 05:10:30
143181580534 0A89461 - IBM Compatible 8GB PC3-10600 DDR3-1333Mhz 2Rx8 1.5v ECC UDIMM 0 USD 94.95 05:10:31
143181580550 743423-081 - HP Compatible 16GB PC3-10600 DDR3-1333Mhz 2Rx4 1.35v ECC RDIMM 0 USD 99.95 05:10:31
143181580553 46W0729 - IBM Compatible 16GB PC3-10600 DDR3-1333Mhz 2Rx4 1.35v ECC RDIMM 0 USD 99.95 05:10:31
143181580562 90Y3165 - IBM Compatible 8GB PC3-10600 DDR3-1333Mhz 2Rx8 1.5v ECC UDIMM 0 USD 94.95 05:10:31
143181580634 647909-B21 - HP Compatible 8GB PC3-10600 DDR3-1333Mhz 2Rx8 1.35v ECC UDIMM 0 USD 99.95 05:10:33
143181580682 0A65718 - IBM Compatible 8GB PC3-10600 DDR3-1333Mhz 2Rx8 1.5v ECC UDIMM 0 USD 99.95 05:10:34
143181580696 90Y3167 - IBM Compatible 8GB PC3-10600 DDR3-1333Mhz 2Rx8 1.5v ECC UDIMM 0 USD 89.95 05:10:34
262743975767 IBM RAM 16gb pc3 10600 cl9 ecc ddr3 sdram rdimm New sealed 0 USD 100.0 07:05:18
191960782325 49Y1527 16GB PC3L-10600 VLP RDIMM Memory IBM HS22 7870, HS22V 7871, HS23 7875 0 USD 99.0 07:29:45
122728225209 Dell PC3-10600 (DDR3-1333) 16GB RDIMM 1600 MHz PC3-10600 DDR3 SDRAM Memory... 0 USD 100.0 10:50:52
123702215645 Dell Samsung 32GB PC3L-10600R DDR3-1333 ECC REG Server Memory M393B4G70DM0-YH9 0 USD 88.0 11:13:38
121486371935 Hynix 8GB PC3L-10600R DDR3-1333 LV ECC REG SERVER MEMORY HMT31GR7EFR4A-H9****** 0 USD 95.0 15:03:33
251789976197 NEW Samsung DDR3 4GB 1333MHz PC3-10600 ECC REG Server RAM Memory SA4G13ECR 0 USD 97.76 19:56:22
122623288718 Child Life Colostrum For Kids With Probiotics 50 Grams Powder 1-Each (Pack Of 6) 1 USD 96.44 1d 00:02:12
192923548318 647901-B21 RETAIL HP 16GB (1x16GB) Dual Rank x4 PC3L-10600R (DDR3-1333) Register 0 USD 99.99 1d 00:32:37
192923548319 664692-001 RETAIL HP 16GB (1x16GB) Dual Rank x4 PC3L-10600R (DDR3-1333) Register 0 USD 99.98 1d 00:32:37
283426775591 NITTO R10 Bicycle Carrier Rear Bag Supporter for 26 '' / 27 "Wheels JAPAN Import 0 USD 99.11 1d 01:59:02
264206060647 Micron 32GB (16GB x 2) 2Rx4 PC3L-10600R MT36KSF2G72PZ-1G4E1FG DDR3 SDRAM Memory 0 USD 100.0 1d 02:01:24
361023020855 2.637 x 4 1/4 x 14 1/8 Aluminum Plate Fortal ® HR T651 Aircraft Quality #10600 0 USD 85.95 1d 02:16:03
323702917169 8GB/16GB/32GB 1333MHz Desktop DDR3 For Kingston HyperX FURY PC3-10600 DIMM MEMO 0 USD 98.19 1d 04:31:55
181384975818 8GB Kit 2 X 4GB DDR3 Dell Inspiron One 2305 PC3-10600 1333MHz Desktop DIMM RAM 1 USD 94.99 1d 04:41:51
391969736625 16GB (4x4GB) Memory RAM PC3-10600 ECC Unbuffered HP Compaq ProLiant ML110 G7 1 USD 87.54 1d 06:02:24
352646945470 Samsung 16GB 32GB 64GB 128GB PC3-10600R DDR3-1333MHZ 4RX4 SERVER MEMORY RAM LOT 0 USD 99.44 1d 06:28:58
163555534110 WARIS 4GB (1*4GB) PC3-10600 DDR3-1333MHZ UB-DIMM - B473E490 1 USD 87.19 1d 06:37:54
232644517215 16GB 2X 8GB DDR3 RAM MEMORY FOR APPLE MAC MINI PC3-10600 DDR3 1333MHZ SODIMM NEW 0 USD 99.48 1d 06:56:44
303132574768 Engine Cylinder Head Gasket Set ITM 09-10600 0 USD 95.3 1d 08:08:25
232644578685 16GB (2X8GB) RAM Memory for Lenovo ThinkPad X230T SERIES DDR3-10600 SODIMM 0 USD 99.48 1d 08:09:17
192924029777 Picture Frame Moulding (Wood) - Traditional Mahogany Finish - 1.75" width - 3/4" 0 USD 88.78 1d 09:40:37
202096623937 Disc Brake Pad Set-Jurid WD EXPRESS 520 10600 049 fits 02-08 Mini Cooper 0 USD 86.28 1d 09:56:22
232644689341 16GB 2X8GB PC3-10600 204 PIN DDR3 SODIMM Memory for the Apple MAC Mini iMac 0 USD 99.48 1d 10:15:35
192924106430 ITM Engine Components 09-10600 Head Gasket Set 0 USD 87.8 1d 10:48:04
391969930298 16GB Kit [4x4GB] DDR3-1333 PC3-10600 ECC Unbuffered 240 Pin 1.5V CL=9 Memory 0 USD 87.54 1d 11:41:31
173847269336 NEW - LOT of 7 - HP PC3-10600 4 GB SDRAM 1333 MHz DDR3 SDRAM Memory (604504-B21) 0 USD 99.95 1d 14:43:27
362626859353 Crucial 8GB 16GB 32GB PC3-10600 DDR3-1333 204pin CL9 1.5v SODIMM Laptop Memory 0 USD 85.5 1d 18:35:10
183744563688 FPV Drone Wifi Camera Live Video DBPOWER MJX X400W Headless Mode 2.4GHz 4 Chanel 0 USD 92.59 1d 19:55:47
221688942453 Samsung 8GB PC3-10600R DDR3-1333MHz ECC Reg 240P DIMM M392B1K70CM0-CH9 MEMORY 0 USD 90.0 1d 20:37:17
153460135015 Crucial 8GB 16GB 32GB PC3-10600 DDR3 1333 204Pin 1.5V SDRAM SODIMM Laptop Memory 0 USD 85.0 1d 20:52:32
113725838007 For HyperX FURY 32GB 4x 8GB 4GB DDR3 PC3-10600 1333 240PIN Intel Desktop RAM Lot 0 USD 99.99 1d 21:02:15
283493128640 A/C Manifold Hose Assembly ACDelco GM Original Equipment 15-31021 0 USD 98.45 2d 03:30:04
223160936055 16GB KIT (4 x 4GB) DIMM DDR3 NON-ECC PC3-10600 1333MHz RAM Memory 0 USD 99.99 2d 08:08:11
232506250123 16GB (2X8GB) Memory RAM 4 HP Pavilion dv7t Notebook series DDR3-1333, PC3-10600 0 USD 99.48 2d 09:46:28
391897547949 Apple Memory Modules 16GB Kit [2x8GB] DDR3-1333 PC3-10600 204 Pin 1.5V CL=9 0 USD 99.48 2d 09:48:08
232506252003 Apple Memory Modules 16GB Kit [4x4GB] DDR3-1333 PC3-10600 204 Pin 1.5V CL=9 RAM 0 USD 86.17 2d 09:48:15
183784373053 Patriot Mac Series 16GB Apple SODIMM Kit (2X8GB) DDR3 1333 PC3 10600 204-Pin 0 USD 89.95 2d 10:12:23
292887698018 Micron 8GB 16GB 32GB PC3L-10600 1333Mhz 240pin UDIMM desktop Low Density Memory 0 USD 88.36 2d 19:19:12
263840648135 Nissan D106066U91 Brake Pad or Shoe, Front/Disc Brake Pad 0 USD 99.7 2d 23:23:47
382746389037 Axiom 8GB 240-Pin DDR3 SDRAM DDR3 1333 (PC3 10600) ECC Registered System Specifi 0 USD 89.13 2d 23:57:23
303038698866 Axiom 8GB 240-Pin DDR3 SDRAM DDR3 1333 (PC3 10600) ECC Registered System Specifi 0 USD 89.28 2d 23:57:29
352671929200 DELL - IMSOURCING A6996789 16GB DRX4 PC3-10600 DIMM 0 USD 85.17 3d 05:47:19
371856285437 Part 10600-19 Diaphragm (Pack of 2) 0 USD 86.77 3d 07:25:25
192801379936 Supersprox Stealth Black Rear Sprocket with 49 Teeth for KTM EXC 300 1994-2008 0 USD 90.86 3d 10:35:25
292788797337 Axiom 8GB 240-Pin DDR3 SDRAM DDR3 1333 (PC3 10600) ECC Registered System Specifi 0 USD 86.0 3d 21:13:42
382605820465 Axiom 8GB 240-Pin DDR3 SDRAM ECC Registered DDR3 1333 (PC3 10600) Server Memory 0 USD 86.0 3d 21:15:10
192897446811 Laser Protection Goggles 10600 Co2 Laser Od5+En207: 2009 / AC: 2011 0 USD 93.86 4d 01:59:15
233237223605 49Y1397 IBM 8GB PC3L 10600R DDR3 SDRSMM ECC DIMM MEMORY UPGRADE 0 USD 95.0 4d 02:11:42
312442736048 Corsair Apple Certified 16GB (2 x 8GB) DDR3 1333 MHz (PC3 10600) Laptop Memor... 0 USD 85.54 4d 02:42:36
123706835996 New Sealed in Box 32 GB (4X8GB) Genuine HP 593913-S21 2RX4 RDIMM DDR3-10600 ECC 0 USD 89.0 4d 04:51:17
173883452019 Lot of 100 2GB + 1GB PC3 12800 10600 8500 Laptop Memory RAM DDR 3 hynix samsung 0 USD 89.0 4d 09:08:50
200978314070 8GB (1 X 8GB) DDR3 1333 MHZ PC3 10600 ECC UNBUFFERED 512X8 SERVER MEMORY 0 USD 91.99 4d 09:13:52
233208158401 8GB 16GB 32GB PC3-10600S DDR3 1333 204pin SO-DIMM For HP EliteBook 8560w 8760w 1 USD 85.5 4d 14:04:56
113401069883 OWC 16GB (2x 8GB) 1333Mhz PC3-10600 DDR3 SO-DIMM 204-Pin Memory Upgrade Kit 0 USD 95.09 4d 14:15:14
153501506250 4X 8GB CPU PC3-10600 2Rx8 DDR3 1333Mhz 240PIN For Dell Latitude E6400 E6500 D630 0 USD 88.35 4d 15:25:50
302899996078 Samsung 8GB Dual Rank x4 PC3-10600 (DDR3-1333) Registered ECC, CAS-9 server ram 0 USD 88.43 4d 16:03:16
200825692917 8GB kit (2 X 4GB) DDR3 1333 MHZ PC3 10600 ECC 256X8 SERVER MEMORY 1 USD 92.95 4d 17:55:48
223529172126 Kingston PC3-10600 16 GB DIMM 1333 MHz PC3-10600 DDR3 Memory (KVR13N9K2/16) 0 USD 90.0 4d 18:06:19
163705518798 Star Wars (lot of 3) DARTH VADER,SETH LORD / BOBA FETT / C-3PO and D2 / SERIES 3 0 USD 100.0 4d 19:35:29
113760865986 A/C Manifold Hose Assembly ACDelco GM Original Equipment 15-31021 0 USD 94.63 4d 19:36:04
162656525522 A/C Manifold Hose Assembly ACDelco GM Original Equipment 15-31021 0 USD 85.7 4d 20:55:46
191602745147 8GB DDR3 PC3-10600 1333MHz ECC REGISTERED DIMM HP Dell IBM Workstation Server 0 USD 99.95 4d 21:12:15
113761021324 32GB 16GB 8GB DDR3 PC3-10600U 1333Mhz 240Pin 1.5V Computer Desktop Memory RAM 0 USD 95.99 4d 21:26:58
113761022252 32GB 4x 8GB DDR3 PC3-10600U 1333Mhz CL9 1.5V Computer 240Pin DIMM Desktop RAM 0 USD 95.99 4d 21:27:19
132797687053 Master Appliance Proseal Connector Large Assortment Kit, 115Pc (MRA-10600) 0 USD 89.58 4d 23:05:40
362632598131 New 32GB 4X 8GB DDR3 1333MHz PC3-10600 240pin Desktop Memory Non-ECC Unbuffered 1 USD 90.51 5d 01:33:14
382695185524 Kingston 4GB 8GB 16GB DDR3 1333MHz 1600MHz 204pin Sodimm Laptop Memory Ram lot 0 USD 90.52 5d 01:33:24
232908085678 PlasmaGlow 10600 Flexible Blue LED Underbody Kit 0 USD 87.37 5d 02:47:46
352673488709 Samsung 64GB (4X16GB) PC3-10600R 4RX4 DDR3-1333Mhz 240Pin REG Server Memory Ram 2 USD 99.44 5d 03:14:15
292891005466 NITTO REAR BAG SUPPORTER-R10 1 USD 88.86 5d 04:23:02
192898479225 WD Express 520 10600 049 Rear Disc Brake Pads 0 USD 89.68 5d 06:24:13
Tools For Buyer
Misspelled and Typo Search
Zero Bids Search
Images Search


Find great deals on 10600 at Shopzilla.com!
ads from Shopzilla,Inc